Cambridge, Minnesota
Current Conditions -  °F | °C
As of 9:35 PM on Saturday 22 Nov 2014 (Local Time) from KCBG Reporting Station
Haze Haze  
Wind Chill:   Ceiling: 300
Heat Index:   Visibility: 1mi
Dew Point: -1°   Wind: 6mph
Humidity: 75%   Direction: 120°ESE
Pressure: 29.53"   Gusts: NA
Location:  45.57°N, 93.22°W
Report Text: KCBG 230335Z AUTO 12005KT 1SM HZ OVC003 03/M01 A2953 RMK AO2
Loading
Personal Weather Stations






























Interactive Weather Map New forecast layout! Learn more

10-Day Weather Forecast

Advertisements
Track Severe Weather on mobile